Home   Weather   Germany   Leipzig   Past weeks
Flag for Germany

Past Weather in Leipzig, Saxony, Germany — Yesterday and Last 2 Weeks

Currently: 39 °F. Clear. (Weather station: Leipzig-Schkeuditz, Germany). See more current weather

Past Weather in Leipzig — Graph

°F

Leipzig Temperature Yesterday

Maximum temperature yesterday: 46 °F (at 2:50 pm)
Minimum temperature yesterday: 34 °F (at 8:50 pm)
Average temperature yesterday: 39 °F

High & Low Weather Summary for the Past Weeks

 TemperatureHumidityPressure
High61 °F (Feb 16, 1:20 pm)100% (Feb 16, 11:20 pm)30.54 "Hg (Feb 16, 11:20 pm)
Low32 °F (Feb 26, 1:50 am)47% (Feb 25, 1:20 pm)29.09 "Hg (Feb 22, 9:50 pm)
Average45 °F78%29.93 "Hg
* Reported Feb 14 7:20 pm — Feb 29 7:50 pm, Leipzig. Weather by CustomWeather, © 2024

Note: Actual official high and low records may vary slightly from our data, if they occured in-between our weather recording intervals... More about our weather records

Leipzig Weather History for the Previous 24 Hours

Scroll right to see more
 ConditionsComfort  
Time TempWeatherWind HumidityBarometerVisibility
7:50 pm
Thu, Feb 29
39 °FClear.8 mph81%29.83 "Hg10 mi
7:20 pm43 °FClear.6 mph76%29.83 "Hg10 mi
6:50 pm43 °FClear.7 mph76%29.86 "Hg10 mi
6:20 pm43 °FClear.6 mph76%29.86 "Hg10 mi
5:50 pm45 °FClear.7 mph76%29.86 "Hg10 mi
5:20 pm48 °FSunny.8 mph66%29.86 "Hg10 mi
4:50 pm50 °FSunny.9 mph62%29.89 "Hg10 mi
4:20 pm50 °FPassing clouds.9 mph62%29.89 "HgN/A
3:20 pm50 °FSunny.10 mph62%29.92 "Hg10 mi
2:50 pm52 °FSunny.13 mph58%29.92 "Hg10 mi
2:20 pm50 °FPassing clouds.13 mph58%29.95 "HgN/A
1:50 pm50 °FPassing clouds.13 mph58%29.95 "HgN/A
1:20 pm50 °FPassing clouds.13 mph58%29.98 "HgN/A
12:50 pm48 °FPassing clouds.14 mph62%29.98 "HgN/A
12:20 pm48 °FPassing clouds.16 mph62%30.01 "HgN/A
11:50 am46 °FSunny.15 mph62%30.01 "Hg10 mi
11:20 am46 °FSunny.16 mph62%30.04 "Hg10 mi
10:50 am46 °FSunny.15 mph62%30.04 "Hg10 mi
10:20 am45 °FSunny.14 mph66%30.04 "Hg10 mi
9:50 am43 °FSunny.12 mph76%30.07 "Hg10 mi
9:20 am41 °FSunny.13 mph76%30.07 "Hg10 mi
8:50 am39 °FSunny.10 mph81%30.07 "Hg10 mi
8:20 am36 °FSunny.9 mph87%30.07 "Hg10 mi
7:50 am34 °FSunny.9 mph87%30.07 "Hg10 mi
7:20 am32 °FSunny.9 mph93%30.07 "Hg10 mi
6:50 am32 °FPassing clouds.9 mph93%30.07 "HgN/A
6:20 am32 °FClear.9 mph93%30.07 "Hg10 mi
5:50 am32 °FClear.12 mph93%30.07 "Hg10 mi
5:20 am32 °FClear.9 mph93%30.07 "Hg10 mi
4:50 am32 °FClear.10 mph93%30.09 "Hg10 mi
4:20 am32 °FClear.8 mph93%30.09 "Hg10 mi
3:50 am32 °FClear.9 mph87%30.09 "Hg10 mi
3:20 am32 °FClear.9 mph93%30.09 "Hg10 mi
2:50 am32 °FClear.9 mph93%30.12 "Hg10 mi
2:20 am34 °FClear.8 mph87%30.12 "Hg10 mi
1:50 am34 °FClear.8 mph87%30.12 "Hg10 mi
1:20 am34 °FClear.7 mph87%30.12 "Hg10 mi
12:50 am34 °FClear.7 mph81%30.15 "Hg10 mi
12:20 am34 °FClear.7 mph81%30.15 "Hg10 mi
11:50 pm
Wed, Feb 28
34 °FClear.7 mph81%30.15 "Hg10 mi
11:20 pm36 °FClear.7 mph75%30.15 "Hg10 mi
10:50 pm34 °FClear.7 mph81%30.15 "Hg10 mi
10:20 pm36 °FClear.6 mph75%30.15 "Hg10 mi
9:50 pm36 °FClear.5 mph75%30.15 "Hg10 mi
9:20 pm36 °FPassing clouds.5 mph75%30.18 "HgN/A
Weather by CustomWeather, © 2024

See weather overview